Chef Menteur, Louisiana
Current Conditions -  °F | °C
As of 1:53 AM on Friday 31 Oct 2014 (Local Time) from KNEW Reporting Station
Clear Clear  
Wind Chill: 67°   Ceiling: Unl
Heat Index: 67°   Visibility: 10mi
Dew Point: 48°   Wind: 9mph
Humidity: 51%   Direction: 360°N
Pressure: 30.05"   Gusts: NA
Location:  29.9961°N, 90.0035°W
Report Text: KNEW 310653Z AUTO 36008KT 10SM CLR 19/09 A3005 RMK AO2 SLP169 T01940089 TSNO
Loading
Personal Weather Stations






























Interactive Weather Map
Tropical Storm Tracking
New forecast layout! Learn more

10-Day Weather Forecast

Advertisements
Track Severe Weather on mobile